Time;durP1;ratioP1;P1;durP2;ratioP2;P2;SDS_P1;SDS_P2;PMS_P1;PMS_P2;Temp;Humidity;BMP_temperature;BMP_pressure;BME280_temperature;BME280_humidity;BME280_pressure;Samples;Min_cycle;Max_cycle;Signal;HPM_P1;HPM_P2
2023/07/03 00:00:43;;;;;;;0.68;0.68;;;15.70;99.90;;;;;;5067307;28;20049;-76
2023/07/03 00:03:13;;;;;;;0.50;0.50;;;15.70;99.90;;;;;;5053327;28;20490;-76
2023/07/03 00:05:44;;;;;;;0.98;0.98;;;15.70;99.90;;;;;;5068227;28;20051;-75
2023/07/03 00:08:17;;;;;;;2.83;0.50;;;15.60;99.90;;;;;;5067168;28;20167;-75
2023/07/03 00:10:43;;;;;;;1.17;0.98;;;15.50;99.90;;;;;;5069717;28;20040;-75
2023/07/03 00:13:10;;;;;;;0.73;0.73;;;15.60;99.90;;;;;;5052446;28;20552;-76
2023/07/03 00:15:36;;;;;;;0.43;0.43;;;15.60;99.90;;;;;;5065661;28;20071;-75
2023/07/03 00:18:02;;;;;;;0.30;0.30;;;15.50;99.90;;;;;;5063077;28;20153;-75
2023/07/03 00:20:27;;;;;;;3.72;1.30;;;15.40;99.90;;;;;;5068167;28;20668;-75
2023/07/03 00:22:55;;;;;;;0.40;0.40;;;15.40;99.90;;;;;;5068038;28;20153;-76
2023/07/03 00:25:21;;;;;;;0.47;0.47;;;15.50;99.90;;;;;;5062969;28;20048;-76
2023/07/03 00:27:47;;;;;;;0.65;0.65;;;15.60;99.90;;;;;;5067408;28;20047;-76
2023/07/03 00:30:15;;;;;;;1.65;0.68;;;15.50;99.90;;;;;;5063847;28;20143;-75
2023/07/03 00:32:40;;;;;;;1.08;1.05;;;15.40;99.90;;;;;;5074916;28;20056;-75
2023/07/03 00:35:06;;;;;;;0.50;0.50;;;15.30;99.90;;;;;;5073513;28;20055;-74
2023/07/03 00:37:33;;;;;;;0.93;0.93;;;15.30;99.90;;;;;;5074405;28;20055;-75
2023/07/03 00:39:59;;;;;;;0.43;0.43;;;15.50;99.90;;;;;;5082835;28;20490;-75
2023/07/03 00:42:26;;;;;;;0.85;0.82;;;15.40;99.90;;;;;;5068003;28;20047;-75
2023/07/03 00:44:52;;;;;;;0.60;0.60;;;15.30;99.90;;;;;;5059304;28;20056;-74
2023/07/03 00:47:18;;;;;;;0.80;0.80;;;15.40;99.90;;;;;;5068336;28;20866;-74
2023/07/03 00:49:44;;;;;;;0.32;0.32;;;15.40;99.90;;;;;;5072103;28;20072;-74
2023/07/03 00:52:11;;;;;;;1.90;1.58;;;15.30;99.90;;;;;;5074732;28;20485;-75
2023/07/03 00:54:38;;;;;;;0.50;0.50;;;15.40;99.90;;;;;;5077066;28;20119;-74
2023/07/03 00:57:05;;;;;;;0.85;0.85;;;15.40;99.90;;;;;;5077999;28;20532;-75
2023/07/03 00:59:33;;;;;;;0.93;0.90;;;15.40;99.90;;;;;;5079777;28;20059;-75
2023/07/03 01:02:05;;;;;;;;;;;15.30;99.90;;;;;;5076361;28;20059;-75
2023/07/03 01:04:34;;;;;;;1.70;1.35;;;15.50;99.90;;;;;;5067243;28;19924;-75
2023/07/03 01:07:24;;;;;;;1.48;1.30;;;15.40;99.90;;;;;;5072213;28;20045;-75
2023/07/03 01:09:54;;;;;;;0.60;0.60;;;15.40;99.90;;;;;;5080110;28;20055;-74
2023/07/03 01:12:23;;;;;;;0.88;0.88;;;15.40;99.90;;;;;;5071268;28;20078;-75
2023/07/03 01:14:49;;;;;;;0.60;0.60;;;15.40;99.90;;;;;;5077393;28;20123;-74
2023/07/03 01:17:16;;;;;;;0.43;0.43;;;15.40;99.90;;;;;;5080208;28;20044;-75
2023/07/03 01:19:45;;;;;;;1.38;1.25;;;15.40;99.90;;;;;;5067962;28;20040;-75
2023/07/03 01:22:25;;;;;;;0.60;0.60;;;15.40;99.90;;;;;;5064925;28;20700;-73
2023/07/03 01:24:55;;;;;;;3.80;1.27;;;15.40;99.90;;;;;;5076725;28;20040;-75
2023/07/03 01:27:26;;;;;;;0.43;0.43;;;15.40;99.90;;;;;;5069075;28;20511;-74
2023/07/03 01:29:53;;;;;;;0.60;0.60;;;15.40;99.90;;;;;;5075094;28;20059;-75
2023/07/03 01:32:21;;;;;;;0.65;0.65;;;15.40;99.90;;;;;;5067039;28;20107;-74
2023/07/03 01:34:49;;;;;;;0.50;0.50;;;15.40;99.90;;;;;;5073097;28;20051;-75
2023/07/03 01:37:17;;;;;;;0.57;0.57;;;15.40;99.90;;;;;;5063204;28;20083;-75
2023/07/03 01:39:45;;;;;;;0.32;0.32;;;15.50;99.90;;;;;;5072174;28;20048;-75
2023/07/03 01:42:12;;;;;;;0.32;0.32;;;15.50;99.90;;;;;;5078271;28;20052;-75
2023/07/03 01:44:38;;;;;;;0.73;0.73;;;15.50;99.90;;;;;;5071107;28;20056;-74
2023/07/03 01:47:07;;;;;;;0.50;0.50;;;15.50;99.90;;;;;;5077084;28;20121;-75
2023/07/03 01:49:33;;;;;;;0.80;0.80;;;15.50;99.90;;;;;;5073669;28;20045;-75
2023/07/03 01:52:16;;;;;;;0.50;0.50;;;15.60;99.90;;;;;;5076502;28;20074;-75
2023/07/03 01:54:45;;;;;;;1.00;1.00;;;15.40;99.90;;;;;;5068787;28;20501;-75
2023/07/03 01:57:16;;;;;;;1.75;1.55;;;15.60;99.90;;;;;;5069785;28;20127;-74
2023/07/03 01:59:42;;;;;;;1.15;1.08;;;15.60;99.90;;;;;;5068287;28;20148;-75
2023/07/03 02:02:15;;;;;;;1.02;1.02;;;15.40;99.90;;;;;;5063220;28;20146;-75
2023/07/03 02:05:08;;;;;;;1.10;0.95;;;15.40;99.90;;;;;;5070951;28;20127;-75
2023/07/03 02:07:35;;;;;;;1.00;1.00;;;15.50;99.90;;;;;;5077014;28;20511;-75
2023/07/03 02:10:05;;;;;;;0.40;0.40;;;15.50;99.90;;;;;;5062318;28;20052;-75
2023/07/03 02:12:30;;;;;;;0.65;0.65;;;15.50;99.90;;;;;;5065735;28;20860;-75
2023/07/03 02:15:02;;;;;;;2.42;1.60;;;15.70;99.90;;;;;;5064675;28;20052;-74
2023/07/03 02:17:28;;;;;;;0.45;0.45;;;15.60;99.90;;;;;;5070903;28;20508;-75
2023/07/03 02:19:54;;;;;;;2.38;1.00;;;15.70;99.90;;;;;;5076691;28;20087;-75
2023/07/03 02:22:20;;;;;;;0.50;0.50;;;15.70;99.90;;;;;;5069809;28;20048;-75
2023/07/03 02:24:45;;;;;;;0.38;0.38;;;15.60;99.90;;;;;;5066715;28;20040;-74
2023/07/03 02:27:11;;;;;;;0.60;0.60;;;15.60;99.90;;;;;;5074985;28;20041;-75
2023/07/03 02:29:37;;;;;;;0.45;0.45;;;15.50;99.90;;;;;;5070518;28;20035;-75
2023/07/03 02:32:08;;;;;;;0.32;0.32;;;15.60;99.90;;;;;;5070236;28;20065;-73
2023/07/03 02:34:34;;;;;;;1.27;0.80;;;15.60;99.90;;;;;;5063868;28;20512;-75
2023/07/03 02:37:00;;;;;;;0.43;0.43;;;15.90;99.90;;;;;;5066845;28;20045;-75
2023/07/03 02:39:29;;;;;;;0.73;0.73;;;15.80;99.90;;;;;;5076390;28;20462;-74
2023/07/03 02:41:57;;;;;;;0.38;0.38;;;15.60;99.90;;;;;;5052826;28;20057;-74
2023/07/03 02:44:22;;;;;;;0.50;0.50;;;15.60;99.90;;;;;;5069500;28;20041;-74
2023/07/03 02:46:48;;;;;;;0.40;0.40;;;15.60;99.90;;;;;;5069639;28;20048;-75
2023/07/03 02:49:14;;;;;;;0.60;0.60;;;15.70;99.90;;;;;;5076278;28;20318;-75
2023/07/03 02:51:40;;;;;;;0.50;0.50;;;15.80;99.90;;;;;;5057775;28;20052;-75
2023/07/03 02:54:05;;;;;;;0.50;0.50;;;15.60;99.90;;;;;;5067500;28;20056;-75
2023/07/03 02:56:31;;;;;;;0.55;0.55;;;15.50;99.90;;;;;;5072402;28;20056;-76
2023/07/03 02:58:57;;;;;;;0.65;0.65;;;15.50;99.90;;;;;;5048359;28;20110;-75
2023/07/03 03:01:23;;;;;;;0.93;0.93;;;15.60;99.90;;;;;;5073123;28;20565;-75
2023/07/03 03:03:49;;;;;;;0.40;0.40;;;15.50;99.90;;;;;;5075590;28;20040;-75
2023/07/03 03:06:15;;;;;;;0.77;0.77;;;15.50;99.90;;;;;;5068212;28;20148;-75
2023/07/03 03:08:40;;;;;;;0.65;0.65;;;15.50;99.90;;;;;;5060443;28;20079;-75
2023/07/03 03:11:09;;;;;;;2.38;0.63;;;15.60;99.90;;;;;;5068194;28;20421;-75
2023/07/03 03:13:35;;;;;;;0.80;0.80;;;15.50;99.90;;;;;;5063936;28;20044;-75
2023/07/03 03:16:00;;;;;;;0.50;0.50;;;15.50;99.90;;;;;;5071344;28;20048;-75
2023/07/03 03:18:26;;;;;;;2.85;0.77;;;15.70;99.90;;;;;;5072620;28;20048;-75
2023/07/03 03:20:51;;;;;;;0.90;0.90;;;15.50;99.90;;;;;;5060157;28;20149;-75
2023/07/03 03:23:18;;;;;;;0.90;0.60;;;15.40;99.90;;;;;;5044390;28;20851;-74
2023/07/03 03:25:44;;;;;;;0.40;0.40;;;15.50;99.90;;;;;;5064054;28;20157;-75
2023/07/03 03:28:10;;;;;;;0.68;0.68;;;15.60;99.90;;;;;;5063311;28;20069;-75
2023/07/03 03:30:35;;;;;;;0.70;0.70;;;15.60;99.90;;;;;;5063229;28;20402;-76
2023/07/03 03:33:01;;;;;;;0.30;0.30;;;15.70;99.90;;;;;;5069308;28;20044;-75
2023/07/03 03:35:27;;;;;;;0.20;0.20;;;15.60;99.90;;;;;;5070339;28;20024;-75
2023/07/03 03:37:52;;;;;;;0.75;0.75;;;15.50;99.90;;;;;;5072547;28;20097;-75
2023/07/03 03:40:18;;;;;;;0.40;0.40;;;15.50;99.90;;;;;;5062920;28;20049;-75
2023/07/03 03:42:43;;;;;;;0.20;0.20;;;15.30;99.90;;;;;;5072527;28;20054;-75
2023/07/03 03:45:10;;;;;;;0.55;0.55;;;15.40;99.90;;;;;;5073013;28;20177;-75
2023/07/03 03:47:35;;;;;;;0.60;0.60;;;15.20;99.90;;;;;;5065330;28;20116;-75
2023/07/03 03:50:01;;;;;;;0.60;0.60;;;15.30;99.90;;;;;;5067548;28;20532;-76
2023/07/03 03:52:27;;;;;;;0.40;0.40;;;15.10;99.90;;;;;;5067578;28;20048;-76
2023/07/03 03:54:53;;;;;;;0.88;0.88;;;15.20;99.90;;;;;;5051925;28;20045;-76
2023/07/03 03:57:18;;;;;;;0.38;0.38;;;15.20;99.90;;;;;;5067596;28;20135;-76
2023/07/03 03:59:44;;;;;;;0.82;0.75;;;15.10;99.90;;;;;;5074918;28;20052;-76
2023/07/03 04:02:10;;;;;;;1.33;1.23;;;15.00;99.90;;;;;;5068528;28;20056;-76
2023/07/03 04:04:36;;;;;;;0.40;0.40;;;15.00;99.90;;;;;;5063989;28;20041;-76
2023/07/03 04:07:03;;;;;;;0.60;0.60;;;14.90;99.90;;;;;;5066071;28;20035;-76
2023/07/03 04:09:29;;;;;;;0.50;0.50;;;14.90;99.90;;;;;;5066619;28;20474;-76
2023/07/03 04:11:55;;;;;;;0.60;0.60;;;14.90;99.90;;;;;;5060512;28;20053;-76
2023/07/03 04:14:20;;;;;;;1.40;0.70;;;14.90;99.90;;;;;;5067157;28;20048;-76
2023/07/03 04:16:47;;;;;;;0.60;0.60;;;15.00;99.90;;;;;;5065704;28;20059;-75
2023/07/03 04:19:14;;;;;;;0.30;0.30;;;15.00;99.90;;;;;;5056627;28;20044;-76
2023/07/03 04:21:40;;;;;;;0.98;0.98;;;14.90;99.90;;;;;;5058193;28;20057;-76
2023/07/03 04:24:06;;;;;;;0.50;0.50;;;14.80;99.90;;;;;;5074648;28;20059;-76
2023/07/03 04:26:32;;;;;;;0.38;0.38;;;14.80;99.90;;;;;;5051557;28;20033;-76
2023/07/03 04:28:58;;;;;;;0.57;0.57;;;14.90;99.90;;;;;;5068112;28;20104;-76
2023/07/03 04:31:24;;;;;;;2.15;1.17;;;14.90;99.90;;;;;;5050089;28;20053;-76
2023/07/03 04:33:50;;;;;;;0.50;0.50;;;15.00;99.90;;;;;;5059219;28;20651;-76
2023/07/03 04:36:20;;;;;;;0.80;0.75;;;14.80;99.90;;;;;;5072589;28;20106;-76
2023/07/03 04:38:47;;;;;;;0.40;0.40;;;14.90;99.90;;;;;;5057542;28;20110;-76
2023/07/03 04:41:14;;;;;;;0.45;0.45;;;15.00;99.90;;;;;;5074222;28;20048;-76
2023/07/03 04:43:48;;;;;;;2.72;0.95;;;14.90;99.90;;;;;;5069478;28;20052;-76
2023/07/03 04:46:14;;;;;;;0.50;0.50;;;15.00;99.90;;;;;;5069652;28;20493;-76
2023/07/03 04:48:39;;;;;;;0.30;0.30;;;14.90;99.90;;;;;;5062675;28;20405;-76
2023/07/03 04:51:05;;;;;;;0.30;0.30;;;14.90;99.90;;;;;;5069898;28;20497;-76
2023/07/03 04:53:40;;;;;;;0.57;0.57;;;15.00;99.90;;;;;;5071660;28;20048;-76
2023/07/03 04:56:07;;;;;;;0.50;0.50;;;15.00;99.90;;;;;;5066856;28;20049;-76
2023/07/03 04:58:33;;;;;;;1.25;1.15;;;15.20;99.90;;;;;;5069743;28;20044;-75
2023/07/03 05:00:59;;;;;;;0.30;0.30;;;15.00;99.90;;;;;;5056763;28;20513;-75
2023/07/03 05:03:25;;;;;;;0.40;0.40;;;15.00;99.90;;;;;;5070053;28;20048;-75
2023/07/03 05:05:51;;;;;;;0.40;0.40;;;15.10;99.90;;;;;;5057101;28;20477;-75
2023/07/03 05:08:17;;;;;;;4.25;0.75;;;15.10;99.90;;;;;;5060938;28;20048;-75
2023/07/03 05:10:43;;;;;;;0.28;0.28;;;14.90;99.90;;;;;;5064173;28;20126;-75
2023/07/03 05:13:09;;;;;;;0.50;0.50;;;15.00;99.90;;;;;;5056530;28;20032;-75
2023/07/03 05:15:36;;;;;;;1.23;1.23;;;15.10;99.90;;;;;;5063743;28;20143;-75
2023/07/03 05:18:01;;;;;;;11.20;1.40;;;15.20;99.90;;;;;;5069099;28;20049;-75
2023/07/03 05:20:29;;;;;;;0.30;0.30;;;15.20;99.90;;;;;;5068317;28;20048;-75
2023/07/03 05:22:55;;;;;;;0.50;0.50;;;15.30;99.90;;;;;;5053737;28;20063;-75
2023/07/03 05:25:22;;;;;;;0.77;0.77;;;15.30;99.90;;;;;;5060689;28;20341;-75
2023/07/03 05:27:48;;;;;;;0.57;0.57;;;15.40;99.90;;;;;;5071494;28;20154;-75
2023/07/03 05:30:15;;;;;;;0.50;0.50;;;15.40;99.90;;;;;;5073035;28;20969;-75
2023/07/03 05:32:41;;;;;;;0.80;0.80;;;15.50;99.90;;;;;;5070756;28;20037;-75
2023/07/03 05:35:07;;;;;;;0.65;0.65;;;15.40;99.90;;;;;;5061947;28;20036;-75
2023/07/03 05:37:35;;;;;;;0.30;0.30;;;15.50;99.90;;;;;;5076184;28;20093;-75
2023/07/03 05:40:03;;;;;;;0.40;0.40;;;15.50;99.90;;;;;;5073343;28;20052;-75
2023/07/03 05:42:29;;;;;;;0.28;0.28;;;15.60;99.90;;;;;;5071143;28;20052;-75
2023/07/03 05:44:55;;;;;;;0.93;0.93;;;15.60;99.90;;;;;;5068848;28;20059;-75
2023/07/03 05:47:20;;;;;;;0.43;0.43;;;15.60;99.90;;;;;;5069935;28;20045;-75
2023/07/03 05:49:48;;;;;;;0.60;0.60;;;15.70;99.90;;;;;;5065498;28;20102;-75
2023/07/03 05:52:14;;;;;;;0.55;0.55;;;15.70;99.90;;;;;;5065313;28;20464;-75
2023/07/03 05:54:40;;;;;;;0.52;0.52;;;15.80;99.90;;;;;;5051668;28;20048;-76
2023/07/03 05:57:11;;;;;;;0.40;0.40;;;15.90;99.90;;;;;;5076939;28;20052;-76
2023/07/03 05:59:39;;;;;;;0.77;0.77;;;16.00;99.90;;;;;;5048347;28;20083;-76
2023/07/03 06:02:10;;;;;;;0.38;0.38;;;16.20;99.90;;;;;;5070349;28;20084;-76
2023/07/03 06:04:37;;;;;;;0.32;0.32;;;16.20;99.90;;;;;;5073567;28;20052;-75
2023/07/03 06:07:03;;;;;;;0.50;0.50;;;16.30;99.90;;;;;;5064011;28;20049;-76
2023/07/03 06:09:29;;;;;;;0.43;0.43;;;16.30;99.90;;;;;;5047193;28;20592;-75
2023/07/03 06:11:58;;;;;;;0.60;0.60;;;16.50;99.90;;;;;;5051077;28;20127;-76
2023/07/03 06:14:24;;;;;;;1.27;1.15;;;16.50;99.90;;;;;;5065642;28;20060;-75
2023/07/03 06:16:51;;;;;;;2.50;1.20;;;16.50;99.90;;;;;;5074040;28;20060;-76
2023/07/03 06:22:30;;;;;;;3.45;0.93;;;16.70;99.90;;;;;;5008115;22;20136;-74
2023/07/03 06:24:59;;;;;;;0.40;0.40;;;16.70;99.90;;;;;;5043887;28;20128;-75
2023/07/03 06:27:25;;;;;;;0.50;0.50;;;16.90;99.90;;;;;;5048805;28;20049;-74
2023/07/03 06:29:51;;;;;;;0.30;0.30;;;17.10;99.90;;;;;;5032190;28;20712;-74
2023/07/03 06:32:18;;;;;;;0.88;0.70;;;17.10;99.90;;;;;;5045941;28;20053;-74
2023/07/03 06:34:43;;;;;;;0.30;0.30;;;17.30;99.90;;;;;;5044411;28;20563;-74
2023/07/03 06:37:10;;;;;;;2.28;1.15;;;17.40;99.90;;;;;;5049682;28;20057;-74
2023/07/03 06:39:38;;;;;;;0.77;0.77;;;17.30;99.90;;;;;;5048001;28;20045;-75
2023/07/03 06:42:05;;;;;;;0.50;0.50;;;17.30;99.90;;;;;;5034838;28;20200;-74
2023/07/03 06:44:31;;;;;;;0.32;0.32;;;17.50;99.90;;;;;;5044573;28;20468;-74
2023/07/03 06:46:56;;;;;;;0.50;0.50;;;17.70;99.90;;;;;;5035857;28;20128;-75
2023/07/03 06:49:24;;;;;;;0.57;0.57;;;17.80;99.90;;;;;;5044303;28;20131;-75
2023/07/03 06:51:53;;;;;;;1.35;1.25;;;18.10;99.90;;;;;;5049036;28;20167;-78
2023/07/03 06:54:28;;;;;;;2.78;0.82;;;18.40;99.90;;;;;;5055136;28;20044;-78
2023/07/03 06:56:54;;;;;;;0.60;0.60;;;18.60;99.90;;;;;;5045338;28;20064;-76
2023/07/03 06:59:20;;;;;;;0.40;0.40;;;18.70;99.90;;;;;;5046566;28;20045;-77
2023/07/03 07:02:08;;;;;;;1.05;1.02;;;18.60;99.90;;;;;;5048393;28;20060;-77
2023/07/03 07:04:42;;;;;;;0.77;0.77;;;18.60;99.90;;;;;;5049661;28;20577;-77
2023/07/03 07:07:09;;;;;;;1.08;1.08;;;18.50;99.90;;;;;;5044508;28;20049;-77
2023/07/03 07:09:35;;;;;;;0.57;0.57;;;18.40;99.90;;;;;;5031182;28;20040;-77
2023/07/03 07:12:02;;;;;;;0.43;0.43;;;18.30;99.90;;;;;;5027172;28;20071;-77
2023/07/03 07:14:29;;;;;;;1.13;1.02;;;18.30;99.90;;;;;;5029125;28;20486;-77
2023/07/03 07:17:01;;;;;;;9.90;0.60;;;18.40;99.90;;;;;;5049131;28;20567;-76
2023/07/03 07:19:27;;;;;;;0.80;0.80;;;18.30;99.90;;;;;;5048721;28;20207;-78
2023/07/03 07:21:54;;;;;;;0.45;0.45;;;18.30;99.90;;;;;;5042350;28;20191;-76
2023/07/03 07:24:22;;;;;;;0.43;0.43;;;18.40;99.90;;;;;;5042407;28;20072;-75
2023/07/03 07:26:50;;;;;;;0.73;0.73;;;18.50;99.90;;;;;;5046178;28;20420;-76
2023/07/03 07:29:16;;;;;;;;;;;18.60;99.90;;;;;;5043662;28;20052;-77
2023/07/03 07:31:42;;;;;;;0.50;0.50;;;18.70;99.90;;;;;;5043334;28;19967;-76
2023/07/03 07:34:10;;;;;;;0.85;0.85;;;18.70;99.90;;;;;;5047408;28;20040;-76
2023/07/03 07:36:38;;;;;;;0.47;0.47;;;18.70;99.90;;;;;;5043838;28;20049;-76
2023/07/03 07:39:04;;;;;;;0.60;0.60;;;18.70;99.90;;;;;;5051200;28;20489;-78
2023/07/03 07:41:31;;;;;;;0.55;0.55;;;18.80;99.90;;;;;;5037857;28;20080;-76
2023/07/03 07:43:58;;;;;;;0.98;0.88;;;18.90;99.90;;;;;;5046341;28;20523;-77
2023/07/03 07:46:28;;;;;;;1.45;1.35;;;19.00;99.90;;;;;;5043996;28;20111;-78
2023/07/03 07:48:55;;;;;;;1.55;1.45;;;19.20;99.90;;;;;;5051370;28;20049;-78
2023/07/03 07:51:22;;;;;;;1.60;1.38;;;19.50;99.90;;;;;;5029282;28;20063;-77
2023/07/03 07:53:47;;;;;;;0.50;0.50;;;19.90;99.90;;;;;;5047393;28;20047;-77
2023/07/03 07:56:13;;;;;;;0.70;0.70;;;20.00;99.90;;;;;;5043984;28;20037;-76
2023/07/03 07:58:39;;;;;;;1.05;0.95;;;20.00;99.90;;;;;;5043086;28;20497;-76
2023/07/03 08:01:05;;;;;;;0.68;0.68;;;20.00;99.90;;;;;;5039711;28;20051;-77
2023/07/03 08:03:31;;;;;;;0.40;0.40;;;19.90;99.90;;;;;;5044805;28;20512;-77
2023/07/03 08:06:03;;;;;;;0.30;0.30;;;19.80;99.90;;;;;;5046061;28;20072;-77
2023/07/03 08:08:30;;;;;;;0.52;0.52;;;19.70;99.90;;;;;;5044563;28;20045;-77
2023/07/03 08:10:59;;;;;;;0.55;0.55;;;19.60;99.90;;;;;;5055362;28;20064;-77
2023/07/03 08:13:25;;;;;;;0.70;0.60;;;19.50;99.90;;;;;;5035882;28;20041;-76
2023/07/03 08:15:51;;;;;;;0.57;0.57;;;19.50;99.90;;;;;;5042337;28;20540;-77
2023/07/03 08:18:18;;;;;;;0.60;0.60;;;19.40;99.90;;;;;;5045501;28;20049;-76
2023/07/03 08:20:45;;;;;;;0.30;0.30;;;19.50;99.90;;;;;;5026123;28;20041;-78
2023/07/03 08:23:11;;;;;;;0.55;0.55;;;19.40;99.90;;;;;;5043421;28;20049;-77
2023/07/03 08:25:37;;;;;;;0.40;0.40;;;19.30;99.90;;;;;;5059611;28;20937;-76
2023/07/03 08:28:04;;;;;;;0.50;0.50;;;19.20;99.90;;;;;;5023698;28;20041;-77
2023/07/03 08:30:30;;;;;;;0.30;0.30;;;19.10;99.90;;;;;;5028575;28;20040;-77
2023/07/03 08:32:55;;;;;;;0.40;0.40;;;18.90;99.90;;;;;;5058365;28;20068;-77
2023/07/03 08:35:21;;;;;;;0.55;0.55;;;18.80;99.90;;;;;;5044074;28;20648;-77
2023/07/03 08:37:47;;;;;;;0.45;0.45;;;18.60;99.90;;;;;;5046691;28;20048;-78
2023/07/03 08:40:18;;;;;;;0.30;0.30;;;18.50;99.90;;;;;;5047171;28;20037;-78
2023/07/03 08:42:53;;;;;;;0.30;0.30;;;18.30;99.90;;;;;;5036532;28;20056;-77
2023/07/03 08:45:28;;;;;;;0.30;0.30;;;18.20;99.90;;;;;;5046048;28;20045;-78
2023/07/03 08:47:55;;;;;;;0.40;0.40;;;18.40;99.90;;;;;;5049997;28;20120;-77
2023/07/03 08:50:22;;;;;;;0.30;0.30;;;18.30;99.90;;;;;;5062809;28;20034;-77
2023/07/03 08:52:55;;;;;;;0.40;0.40;;;18.10;99.90;;;;;;5045610;28;20124;-77
2023/07/03 08:55:27;;;;;;;0.73;0.57;;;18.00;99.90;;;;;;5041723;28;20041;-77
2023/07/03 08:57:52;;;;;;;0.40;0.40;;;18.00;99.90;;;;;;5053023;28;20087;-76
2023/07/03 09:00:20;;;;;;;0.40;0.40;;;17.80;99.90;;;;;;5052332;28;20075;-76
2023/07/03 09:02:54;;;;;;;0.40;0.40;;;17.90;99.90;;;;;;5055626;28;20048;-76
2023/07/03 09:05:42;;;;;;;0.60;0.60;;;17.70;99.90;;;;;;5050771;28;20040;-80
2023/07/03 09:08:16;;;;;;;0.50;0.50;;;17.60;99.90;;;;;;5046414;28;20053;-77
2023/07/03 09:10:46;;;;;;;0.45;0.45;;;17.70;99.90;;;;;;5039181;28;20041;-77
2023/07/03 09:13:20;;;;;;;0.30;0.30;;;17.30;99.90;;;;;;5044607;28;20044;-77
2023/07/03 09:16:11;;;;;;;0.57;0.57;;;17.20;99.90;;;;;;5035104;28;20041;-77
2023/07/03 09:18:44;;;;;;;0.38;0.38;;;17.30;99.90;;;;;;5037220;28;20131;-77
2023/07/03 09:21:10;;;;;;;0.80;0.80;;;16.70;99.90;;;;;;5044973;28;20053;-76
2023/07/03 09:23:46;;;;;;;0.40;0.40;;;16.90;99.90;;;;;;5064728;28;20052;-76
2023/07/03 09:26:33;;;;;;;0.50;0.50;;;16.50;99.90;;;;;;5050389;28;20029;-77
2023/07/03 09:29:00;;;;;;;0.50;0.50;;;16.40;99.90;;;;;;5043031;28;20037;-76
2023/07/03 09:31:27;;;;;;;0.40;0.40;;;16.50;99.90;;;;;;5054004;28;20052;-76
2023/07/03 09:33:53;;;;;;;0.30;0.30;;;16.40;99.90;;;;;;5046985;28;20052;-79
2023/07/03 09:36:31;;;;;;;0.30;0.30;;;16.30;99.90;;;;;;5029551;28;20086;-79
2023/07/03 09:38:57;;;;;;;;;;;16.70;99.90;;;;;;5041825;28;20413;-78
2023/07/03 09:41:29;;;;;;;0.40;0.40;;;17.20;99.90;;;;;;5021171;28;19921;-78
2023/07/03 09:43:55;;;;;;;0.30;0.30;;;17.40;99.90;;;;;;5051349;28;20075;-78
2023/07/03 09:46:22;;;;;;;1.95;1.40;;;17.70;99.90;;;;;;5051561;28;20135;-78
2023/07/03 09:48:49;;;;;;;0.30;0.30;;;18.00;99.90;;;;;;5048918;28;20056;-78
2023/07/03 09:51:25;;;;;;;0.47;0.47;;;18.10;99.90;;;;;;5039656;28;20532;-78
2023/07/03 09:53:52;;;;;;;0.40;0.40;;;18.20;99.90;;;;;;5039781;28;20103;-79
2023/07/03 09:56:21;;;;;;;1.05;1.05;;;18.20;99.90;;;;;;5027876;28;20048;-79
2023/07/03 09:58:50;;;;;;;0.40;0.40;;;18.50;99.90;;;;;;5041338;28;20124;-79
2023/07/03 10:01:24;;;;;;;0.68;0.45;;;19.20;99.90;;;;;;5037829;28;20041;-79
2023/07/03 10:04:06;;;;;;;0.63;0.55;;;19.60;99.90;;;;;;5042931;28;20049;-79
2023/07/03 10:06:34;;;;;;;0.40;0.40;;;19.70;99.90;;;;;;5048704;28;20452;-79
2023/07/03 10:09:25;;;;;;;0.50;0.50;;;19.70;99.90;;;;;;5048353;28;20072;-80
2023/07/03 10:12:09;;;;;;;0.40;0.40;;;19.70;99.90;;;;;;5015431;28;20121;-81
2023/07/03 10:14:51;;;;;;;6.65;0.73;;;19.40;99.90;;;;;;5042291;28;20063;-79
2023/07/03 10:17:31;;;;;;;0.80;0.80;;;19.40;99.90;;;;;;5045752;28;20052;-79
2023/07/03 10:20:08;;;;;;;0.65;0.65;;;19.60;99.90;;;;;;5038694;28;20048;-80
2023/07/03 10:22:34;;;;;;;0.40;0.40;;;19.80;99.90;;;;;;5042571;28;20571;-80
2023/07/03 10:29:19;;;;;;;0.30;0.30;;;20.20;99.90;;;;;;5042919;28;20036;-80
2023/07/03 10:31:55;;;;;;;0.65;0.65;;;20.80;99.90;;;;;;5029541;28;20528;-81
2023/07/03 10:34:31;;;;;;;0.63;0.40;;;20.90;99.90;;;;;;5051776;28;20057;-80
2023/07/03 10:37:02;;;;;;;0.85;0.85;;;20.80;99.90;;;;;;5028225;28;20429;-80
2023/07/03 10:39:41;;;;;;;0.47;0.45;;;20.60;99.90;;;;;;5048487;28;20053;-80
2023/07/03 10:42:22;;;;;;;0.47;0.47;;;20.60;99.90;;;;;;5044876;28;20060;-82
2023/07/03 10:44:55;;;;;;;0.63;0.63;;;20.80;99.90;;;;;;5051365;28;20560;-81
2023/07/03 10:47:38;;;;;;;0.45;0.45;;;21.10;99.90;;;;;;5036607;28;20117;-80
2023/07/03 10:50:04;;;;;;;0.40;0.40;;;21.50;99.90;;;;;;5033050;28;20429;-80
2023/07/03 10:52:38;;;;;;;0.35;0.35;;;21.90;99.90;;;;;;5039242;28;20641;-80
2023/07/03 10:55:17;;;;;;;1.08;1.05;;;22.10;99.90;;;;;;5042151;28;20180;-80
2023/07/03 10:57:56;;;;;;;0.90;0.90;;;22.20;99.90;;;;;;5053217;28;20055;-81
2023/07/03 11:00:44;;;;;;;1.15;0.70;;;22.10;99.90;;;;;;5049196;28;20052;-80
2023/07/03 11:03:19;;;;;;;0.40;0.40;;;21.90;99.90;;;;;;5031809;28;20072;-81
2023/07/03 11:05:55;;;;;;;0.57;0.57;;;21.70;99.90;;;;;;5046783;28;20410;-80
2023/07/03 11:08:31;;;;;;;0.38;0.38;;;21.70;99.90;;;;;;5042297;28;20040;-80
2023/07/03 11:11:25;;;;;;;0.38;0.38;;;21.90;99.90;;;;;;5028592;28;20045;-82
2023/07/03 11:13:56;;;;;;;0.40;0.40;;;22.30;99.90;;;;;;5039806;28;20602;-80
2023/07/03 11:16:30;;;;;;;0.52;0.52;;;22.40;99.90;;;;;;5049510;28;20126;-81
2023/07/03 11:19:21;;;;;;;0.50;0.50;;;22.40;99.90;;;;;;5047942;28;20413;-80
2023/07/03 11:22:12;;;;;;;0.52;0.52;;;22.20;99.90;;;;;;5026649;28;20501;-80
2023/07/03 11:25:04;;;;;;;0.43;0.43;;;22.00;99.90;;;;;;5035605;28;20123;-80
2023/07/03 11:27:35;;;;;;;0.85;0.38;;;21.70;99.90;;;;;;5049940;28;20037;-81
2023/07/03 11:30:02;;;;;;;0.22;0.22;;;21.60;99.90;;;;;;5037651;28;20054;-80
2023/07/03 11:32:33;;;;;;;0.52;0.52;;;21.60;99.90;;;;;;5039544;28;20041;-81
2023/07/03 11:35:01;;;;;;;0.40;0.40;;;21.40;99.90;;;;;;5022500;28;20045;-80
2023/07/03 11:37:40;;;;;;;0.95;0.70;;;21.30;99.90;;;;;;5038038;28;20045;-80
2023/07/03 11:40:33;;;;;;;0.75;0.65;;;21.00;99.90;;;;;;5039007;28;20489;-80
2023/07/03 11:43:36;;;;;;;0.47;0.47;;;20.80;99.90;;;;;;5029438;28;20048;-80
2023/07/03 11:46:08;;;;;;;0.98;0.70;;;20.60;99.90;;;;;;5038773;28;20107;-80
2023/07/03 11:48:42;;;;;;;0.40;0.40;;;20.50;99.90;;;;;;5043783;28;20406;-78
2023/07/03 11:51:12;;;;;;;0.30;0.30;;;20.40;99.90;;;;;;5043477;28;20184;-74
2023/07/03 11:53:46;;;;;;;0.20;0.20;;;20.60;99.90;;;;;;5045159;28;20112;-73
2023/07/03 11:56:34;;;;;;;0.30;0.30;;;21.00;99.90;;;;;;5054144;28;20136;-75
2023/07/03 11:59:05;;;;;;;0.50;0.50;;;21.40;99.90;;;;;;5040995;28;20106;-75
2023/07/03 12:01:32;;;;;;;0.40;0.40;;;21.80;99.90;;;;;;5053459;28;20132;-74
2023/07/03 12:04:00;;;;;;;0.50;0.50;;;22.20;99.90;;;;;;5052574;28;20080;-75
2023/07/03 12:06:38;;;;;;;0.52;0.52;;;22.30;99.90;;;;;;5044815;28;20115;-74
2023/07/03 12:09:20;;;;;;;0.32;0.32;;;22.40;99.90;;;;;;5042051;28;20053;-74
2023/07/03 12:12:19;;;;;;;0.47;0.47;;;22.50;99.90;;;;;;5044983;28;20052;-75
2023/07/03 12:14:56;;;;;;;0.30;0.30;;;22.60;99.90;;;;;;5015458;28;20068;-75
2023/07/03 12:17:29;;;;;;;0.40;0.40;;;22.60;99.90;;;;;;5054197;28;20048;-75
2023/07/03 12:20:05;;;;;;;0.60;0.60;;;22.60;99.90;;;;;;5048895;28;20053;-75
2023/07/03 12:22:36;;;;;;;0.73;0.73;;;22.40;99.90;;;;;;5056729;28;20058;-75
2023/07/03 12:25:07;;;;;;;0.40;0.40;;;22.10;99.90;;;;;;5056813;28;20043;-75
2023/07/03 12:27:34;;;;;;;0.30;0.30;;;22.00;99.90;;;;;;5039973;28;20056;-74
2023/07/03 12:30:01;;;;;;;0.50;0.50;;;21.90;99.90;;;;;;5053745;28;20084;-78
2023/07/03 12:32:33;;;;;;;0.40;0.40;;;21.80;99.90;;;;;;5045373;28;20497;-78
2023/07/03 12:35:19;;;;;;;0.32;0.32;;;21.80;99.90;;;;;;5044741;28;20049;-78
2023/07/03 12:37:56;;;;;;;0.43;0.43;;;21.70;99.90;;;;;;5051195;28;20045;-78
2023/07/03 12:40:24;;;;;;;;;;;21.60;99.90;;;;;;5044822;28;20060;-78
2023/07/03 12:42:55;;;;;;;0.20;0.20;;;21.60;99.90;;;;;;5048633;28;19925;-78
2023/07/03 12:45:27;;;;;;;0.55;0.55;;;21.50;99.90;;;;;;5040649;28;20574;-78
2023/07/03 12:48:10;;;;;;;0.30;0.30;;;21.30;99.90;;;;;;5052172;28;20094;-77
2023/07/03 12:50:57;;;;;;;0.82;0.82;;;21.10;99.90;;;;;;5028536;28;20049;-78
2023/07/03 12:53:24;;;;;;;0.43;0.43;;;20.90;99.90;;;;;;5041903;28;20099;-78
2023/07/03 12:55:54;;;;;;;0.27;0.27;;;20.80;99.90;;;;;;5050746;28;20044;-77
2023/07/03 12:58:22;;;;;;;0.30;0.30;;;20.80;99.90;;;;;;5048083;28;20288;-78
2023/07/03 13:00:58;;;;;;;0.40;0.40;;;20.80;99.90;;;;;;5036418;28;20126;-77
2023/07/03 13:03:24;;;;;;;0.30;0.30;;;20.70;99.90;;;;;;5045767;28;20048;-78
2023/07/03 13:05:50;;;;;;;0.40;0.40;;;20.60;99.90;;;;;;5046690;28;20157;-77
2023/07/03 13:08:16;;;;;;;0.20;0.20;;;20.60;99.90;;;;;;5045309;28;20390;-79